Etusivu
METAR-TAF:

METAR-TAF

Lentoasemat :

Perryton Ochiltree County Airport

Perryton, Texas, Yhdysvallat

Leveyspiiri: 36-24N, Pituuspiiri: 100-44W, korkeus merenpinnasta: 890 m

Tämänhetkinen sää

Tämä raportti tehtiin 13 minuuttia sitten, kello 03.15 UTC
Tuuli 12 kn idästä/koillisesta
Lämpötila 10°C
Kosteus 93%
Ilmanpaine 1003 hPa
Näkyvyys: 0.8 km
Pilvistä 200 ft:n korkeudessa

METAR: KPYX 210315Z AUTO 06012KT 1/2SM OVC002 10/09 A2961 RMK AO2 T01000094

Aika: 22:28 (03:28 UTC)


TAF: puuttuu

Säähavainnot ja -ennusteet yli 4000 lentoasemalta (METAR- ja TAF-raportit).

Käytössä olevat sääasemat on merkitty karttaan keltaisilla ja punaisilla pisteillä.

Aseta hiiri pisteen päälle nähdäksesi sääaseman nimen.

Klikkaa sitten nähdäksesi säähavainnot ja -ennusteet.

Kartan vaihtaminen: klikkaa mustalla rastilla varustettuja vihreitä pisteitä, niin voit zoomata sisään; viivalla varustettua vihreää pistettä, niin voit zoomata ulos tai vihreitä nuolia, niin pääset viereisille kartoille.


METAR-TAF: